createdAt,value
2022-12-23T00:01:28.787Z,55.20
2022-12-23T00:06:31.513Z,55.10
2022-12-23T00:11:34.159Z,55.30
2022-12-23T00:16:38.620Z,55.50
2022-12-23T00:21:41.343Z,55.40
2022-12-23T00:26:44.008Z,55.60
2022-12-23T00:31:48.091Z,55.30
2022-12-23T00:36:50.784Z,55.60
2022-12-23T00:42:10.761Z,55.80
2022-12-23T00:47:35.967Z,55.70
2022-12-23T00:52:38.645Z,55.90
2022-12-23T00:57:41.316Z,55.70
2022-12-23T01:03:02.934Z,56.00
2022-12-23T01:08:05.934Z,56.00
2022-12-23T01:13:08.708Z,56.10
2022-12-23T01:18:12.679Z,56.00
2022-12-23T01:23:15.301Z,56.00
2022-12-23T01:28:17.932Z,56.00
2022-12-23T01:33:21.962Z,56.20
2022-12-23T01:38:24.652Z,56.10
2022-12-23T01:43:42.208Z,56.30
2022-12-23T01:48:47.700Z,56.40
2022-12-23T01:53:51.752Z,56.40
2022-12-23T01:58:56.182Z,56.40
2022-12-23T02:04:01.546Z,56.40
2022-12-23T02:09:20.149Z,56.50
2022-12-23T02:14:46.098Z,56.50
2022-12-23T02:20:09.937Z,56.50
2022-12-23T02:25:27.481Z,56.80
2022-12-23T02:30:35.960Z,56.70
2022-12-23T02:35:41.722Z,56.60
2022-12-23T02:40:48.477Z,56.80
2022-12-23T02:45:55.587Z,56.90
2022-12-23T02:50:58.786Z,56.90
2022-12-23T02:56:02.866Z,56.90
2022-12-23T03:01:07.728Z,57.10
2022-12-23T03:06:16.807Z,57.10
2022-12-23T03:11:19.494Z,57.00
2022-12-23T03:16:24.520Z,57.00
2022-12-23T03:21:32.760Z,57.10
2022-12-23T03:26:40.068Z,57.30
2022-12-23T03:31:45.218Z,57.20
2022-12-23T03:36:50.096Z,57.20
2022-12-23T03:41:54.891Z,57.20
2022-12-23T03:47:01.668Z,57.20
2022-12-23T03:52:08.012Z,57.10
2022-12-23T03:57:11.532Z,57.20
2022-12-23T04:02:19.275Z,57.30
2022-12-23T04:07:23.571Z,57.60
2022-12-23T04:12:27.193Z,57.30
2022-12-23T04:17:31.240Z,57.30
2022-12-23T04:22:33.987Z,57.50
2022-12-23T04:27:36.635Z,57.40
2022-12-23T04:32:41.014Z,57.30
2022-12-23T04:37:43.688Z,57.50
2022-12-23T04:42:46.369Z,57.50
2022-12-23T04:47:50.394Z,57.50
2022-12-23T04:52:53.079Z,57.40
2022-12-23T04:57:55.703Z,57.40
2022-12-23T05:02:59.807Z,57.60
2022-12-23T05:08:03.379Z,57.50
2022-12-23T05:13:06.051Z,57.70
2022-12-23T05:18:10.072Z,57.80
2022-12-23T05:23:14.289Z,57.70
2022-12-23T05:28:17.027Z,57.50
2022-12-23T05:33:21.071Z,57.80
2022-12-23T05:38:23.770Z,57.70
2022-12-23T05:43:26.428Z,57.70
2022-12-23T05:48:30.467Z,57.50
2022-12-23T05:53:33.170Z,57.60
2022-12-23T05:58:35.797Z,57.80
2022-12-23T06:03:40.376Z,57.50
2022-12-23T06:08:43.238Z,57.40
2022-12-23T06:13:45.967Z,57.50
2022-12-23T06:18:50.030Z,57.60
2022-12-23T06:23:52.667Z,57.70
2022-12-23T06:28:55.386Z,57.60
2022-12-23T06:33:59.447Z,57.80
2022-12-23T06:39:02.065Z,57.90
2022-12-23T06:44:04.854Z,57.80
2022-12-23T06:49:13.139Z,57.80
2022-12-23T06:54:16.246Z,57.90
2022-12-23T06:59:18.860Z,57.90
2022-12-23T07:04:22.828Z,57.80
2022-12-23T07:09:26.161Z,58.00
2022-12-23T07:14:28.827Z,58.20
2022-12-23T07:19:32.903Z,58.00
2022-12-23T07:24:35.596Z,58.30
2022-12-23T07:29:38.419Z,58.30
2022-12-23T07:34:42.425Z,58.20
2022-12-23T07:39:45.109Z,58.30
2022-12-23T07:44:48.196Z,58.10
2022-12-23T07:49:52.167Z,58.40
2022-12-23T07:54:54.884Z,58.30
2022-12-23T07:59:58.125Z,58.20
2022-12-23T08:05:02.493Z,58.20
2022-12-23T08:10:06.009Z,58.30
2022-12-23T08:15:09.320Z,58.50
2022-12-23T08:20:13.600Z,58.60
2022-12-23T08:25:16.223Z,58.50
2022-12-23T08:30:18.977Z,58.90
2022-12-23T08:35:23.239Z,58.80
2022-12-23T08:40:25.912Z,58.90
2022-12-23T08:45:28.611Z,59.10
2022-12-23T08:50:32.627Z,59.20
2022-12-23T08:55:38.167Z,59.10
2022-12-23T09:00:40.803Z,58.90
2022-12-23T09:05:44.993Z,59.10
2022-12-23T09:10:47.624Z,59.20
2022-12-23T09:15:50.379Z,59.20
2022-12-23T09:21:00.618Z,59.20
2022-12-23T09:26:04.643Z,59.50
2022-12-23T09:31:08.641Z,59.50
2022-12-23T09:36:12.676Z,59.50
2022-12-23T09:41:20.460Z,59.40
2022-12-23T09:46:24.864Z,59.70
2022-12-23T09:51:30.546Z,59.90
2022-12-23T09:56:38.631Z,59.90
2022-12-23T10:01:45.470Z,60.00
2022-12-23T10:06:55.041Z,60.00
2022-12-23T10:11:59.161Z,60.00
2022-12-23T10:17:06.165Z,60.30
2022-12-23T10:22:14.692Z,60.00
2022-12-23T10:27:23.077Z,60.20
2022-12-23T10:32:35.241Z,60.00
2022-12-23T10:37:41.533Z,60.10
2022-12-23T10:42:46.796Z,60.00
2022-12-23T10:47:52.734Z,60.10
2022-12-23T10:52:58.216Z,60.00
2022-12-23T10:58:02.830Z,60.00
2022-12-23T11:03:09.218Z,60.20
2022-12-23T11:08:13.366Z,60.20
2022-12-23T11:13:25.907Z,60.20
2022-12-23T11:18:28.616Z,60.30
2022-12-23T11:23:33.319Z,60.40
2022-12-23T11:28:38.081Z,60.50
2022-12-23T11:33:41.739Z,60.30
2022-12-23T11:38:51.214Z,60.30
2022-12-23T11:43:57.193Z,60.20
2022-12-23T11:49:07.450Z,60.20
2022-12-23T11:54:15.938Z,60.20
2022-12-23T11:59:29.568Z,60.40
2022-12-23T12:04:33.680Z,59.90
2022-12-23T12:09:40.490Z,60.20
2022-12-23T12:14:45.094Z,59.90
2022-12-23T12:19:54.675Z,60.10
2022-12-23T12:24:59.785Z,60.30
2022-12-23T12:30:08.466Z,60.10
2022-12-23T12:35:14.289Z,60.20
2022-12-23T12:40:24.171Z,60.10
2022-12-23T12:45:28.994Z,60.30
2022-12-23T12:50:34.133Z,60.50
2022-12-23T12:55:39.769Z,60.40
2022-12-23T13:00:45.379Z,60.40
2022-12-23T13:05:56.723Z,60.30
2022-12-23T13:11:04.801Z,60.60
2022-12-23T13:16:13.223Z,60.70
2022-12-23T13:21:18.921Z,60.90
2022-12-23T13:26:30.853Z,61.00
2022-12-23T13:31:37.000Z,60.80
2022-12-23T13:36:45.466Z,60.90
2022-12-23T13:41:51.040Z,61.20
2022-12-23T13:46:58.479Z,61.00
2022-12-23T13:52:06.439Z,61.30
2022-12-23T13:57:14.822Z,61.10
2022-12-23T14:02:36.139Z,61.40
2022-12-23T14:07:38.929Z,61.20
2022-12-23T14:12:43.490Z,61.30
2022-12-23T14:17:48.899Z,61.30
2022-12-23T14:22:58.632Z,61.00
2022-12-23T14:28:07.094Z,61.30
2022-12-23T14:33:15.907Z,61.30
2022-12-23T14:38:28.687Z,61.10
2022-12-23T14:43:52.616Z,61.30
2022-12-23T14:49:39.006Z,61.10
2022-12-23T14:54:38.881Z,61.10
2022-12-23T14:59:48.188Z,61.30
2022-12-23T15:04:53.942Z,61.20
2022-12-23T15:10:01.004Z,61.00
2022-12-23T15:15:06.472Z,61.20
2022-12-23T15:20:14.213Z,60.90
2022-12-23T15:25:21.047Z,61.00
2022-12-23T15:30:25.905Z,61.10
2022-12-23T15:35:30.228Z,61.00
2022-12-23T15:40:34.228Z,61.30
2022-12-23T15:45:39.166Z,61.00
2022-12-23T15:50:42.432Z,61.20
2022-12-23T15:55:45.685Z,61.20
2022-12-23T16:00:54.215Z,61.30
2022-12-23T16:06:06.686Z,61.20
2022-12-23T16:11:14.201Z,61.40
2022-12-23T16:16:35.127Z,61.40
2022-12-23T16:21:38.013Z,61.50
2022-12-23T16:26:42.091Z,61.60
2022-12-23T16:31:52.188Z,61.50
2022-12-23T16:37:00.138Z,62.00
2022-12-23T16:42:02.861Z,61.60
2022-12-23T16:47:09.202Z,61.70
2022-12-23T16:52:14.185Z,61.50
2022-12-23T16:57:16.841Z,61.90
2022-12-23T17:02:22.936Z,62.00
2022-12-23T17:07:26.427Z,62.10
2022-12-23T17:12:29.516Z,62.10
2022-12-23T17:17:37.347Z,61.90
2022-12-23T17:22:40.309Z,62.00
2022-12-23T17:27:43.162Z,61.70
2022-12-23T17:32:50.791Z,62.20
2022-12-23T17:37:54.152Z,61.60
2022-12-23T17:42:56.793Z,62.00
2022-12-23T17:48:00.831Z,62.10
2022-12-23T17:53:03.746Z,62.10
2022-12-23T17:58:06.403Z,61.80
2022-12-23T18:03:21.278Z,61.70
2022-12-23T18:08:23.974Z,61.90
2022-12-23T18:13:26.617Z,61.70
2022-12-23T18:18:37.981Z,61.80
2022-12-23T18:23:48.473Z,61.60
2022-12-23T18:28:51.360Z,61.50
2022-12-23T18:33:55.471Z,61.60
2022-12-23T18:38:58.105Z,61.70
2022-12-23T18:44:00.796Z,61.80
2022-12-23T18:49:05.484Z,61.90
2022-12-23T18:54:08.135Z,61.80
2022-12-23T18:59:15.964Z,61.50
2022-12-23T19:04:20.151Z,61.70
2022-12-23T19:09:23.931Z,61.90
2022-12-23T19:14:26.610Z,61.80
2022-12-23T19:19:30.573Z,61.50
2022-12-23T19:24:33.234Z,61.60
2022-12-23T19:29:35.905Z,61.70
2022-12-23T19:34:39.916Z,61.70
2022-12-23T19:39:42.596Z,62.10
2022-12-23T19:44:45.562Z,61.80
2022-12-23T19:49:49.532Z,62.00
2022-12-23T19:54:52.949Z,62.00
2022-12-23T19:59:55.609Z,62.30
2022-12-23T20:05:00.421Z,62.30
2022-12-23T20:10:03.315Z,62.30
2022-12-23T20:15:06.310Z,62.50
2022-12-23T20:20:10.701Z,62.80
2022-12-23T20:25:13.417Z,62.80
2022-12-23T20:30:16.165Z,62.60
2022-12-23T20:35:20.181Z,62.70
2022-12-23T20:40:22.810Z,62.80
2022-12-23T20:45:26.164Z,62.80
2022-12-23T20:50:31.085Z,62.90
2022-12-23T20:55:34.321Z,63.00
2022-12-23T21:00:37.012Z,63.10
2022-12-23T21:05:41.015Z,63.10
2022-12-23T21:10:43.687Z,63.30
2022-12-23T21:15:46.435Z,62.90
2022-12-23T21:20:50.441Z,62.80
2022-12-23T21:25:53.073Z,63.00
2022-12-23T21:30:55.760Z,63.30
2022-12-23T21:35:59.823Z,63.10
2022-12-23T21:41:03.570Z,63.20
2022-12-23T21:46:07.389Z,63.10
2022-12-23T21:51:13.380Z,63.00
2022-12-23T21:56:17.465Z,62.80
2022-12-23T22:01:21.455Z,63.00
2022-12-23T22:06:26.410Z,62.80
2022-12-23T22:11:30.375Z,62.70
2022-12-23T22:16:33.867Z,62.80
2022-12-23T22:21:39.533Z,62.90
2022-12-23T22:26:42.462Z,62.80
2022-12-23T22:31:46.195Z,62.80
2022-12-23T22:36:50.825Z,62.80
2022-12-23T22:41:53.733Z,62.80
2022-12-23T22:46:56.458Z,62.80
2022-12-23T22:52:00.500Z,62.70
2022-12-23T22:57:03.181Z,62.90
2022-12-23T23:02:05.980Z,62.70
2022-12-23T23:07:10.037Z,63.00
2022-12-23T23:12:12.693Z,63.00
2022-12-23T23:17:15.365Z,62.70
2022-12-23T23:22:20.555Z,63.00
2022-12-23T23:27:23.288Z,63.00
2022-12-23T23:32:26.028Z,63.10
2022-12-23T23:37:30.095Z,62.80
2022-12-23T23:42:32.741Z,62.60
2022-12-23T23:47:35.388Z,62.80
2022-12-23T23:52:39.450Z,62.80
2022-12-23T23:57:42.132Z,63.10
